createdAt,value
2023-02-16T00:00:32.784Z,39.47
2023-02-16T00:03:00.212Z,42.80
2023-02-16T00:05:28.937Z,43.42
2023-02-16T00:07:57.172Z,48.25
2023-02-16T00:10:25.170Z,45.58
2023-02-16T00:13:12.272Z,51.58
2023-02-16T00:15:40.414Z,47.50
2023-02-16T00:18:15.574Z,49.47
2023-02-16T00:20:43.040Z,49.33
2023-02-16T00:23:10.428Z,46.63
2023-02-16T00:25:37.945Z,47.72
2023-02-16T00:28:06.484Z,51.83
2023-02-16T00:30:33.950Z,49.95
2023-02-16T00:33:01.584Z,47.28
2023-02-16T00:35:29.096Z,46.42
2023-02-16T00:37:56.483Z,49.10
2023-02-16T00:40:24.485Z,49.22
2023-02-16T00:42:51.932Z,52.05
2023-02-16T00:45:21.926Z,47.05
2023-02-16T00:47:51.850Z,46.15
2023-02-16T00:50:27.911Z,41.63
2023-02-16T00:52:58.339Z,48.30
2023-02-16T00:55:31.011Z,45.85
2023-02-16T00:58:17.113Z,45.13
2023-02-16T01:00:48.701Z,45.17
2023-02-16T01:03:25.199Z,46.97
2023-02-16T01:06:12.928Z,48.72
2023-02-16T01:08:59.033Z,45.50
2023-02-16T01:11:26.933Z,48.50
2023-02-16T01:13:55.374Z,45.78
2023-02-16T01:16:24.541Z,49.10
2023-02-16T01:18:52.832Z,48.28
2023-02-16T01:21:22.018Z,47.83
2023-02-16T01:23:49.520Z,49.63
2023-02-16T01:26:18.223Z,55.90
2023-02-16T01:28:47.359Z,61.80
2023-02-16T01:31:17.082Z,57.88
2023-02-16T01:33:44.647Z,57.58
2023-02-16T01:36:18.080Z,62.25
2023-02-16T01:38:45.839Z,62.22
2023-02-16T01:41:35.054Z,60.95
2023-02-16T01:44:04.257Z,60.63
2023-02-16T01:46:40.211Z,71.43
2023-02-16T01:49:12.825Z,75.30
2023-02-16T01:51:56.660Z,74.75
2023-02-16T01:54:32.268Z,71.97
2023-02-16T01:57:11.944Z,78.90
2023-02-16T02:00:04.412Z,80.47
2023-02-16T02:02:42.622Z,85.18
2023-02-16T02:05:36.966Z,78.90
2023-02-16T02:08:24.990Z,84.55
2023-02-16T02:11:01.954Z,89.35
2023-02-16T02:13:33.671Z,89.63
2023-02-16T02:16:02.344Z,92.38
2023-02-16T02:18:30.261Z,96.35
2023-02-16T02:21:16.286Z,87.68
2023-02-16T02:23:54.123Z,91.18
2023-02-16T02:26:40.153Z,84.40
2023-02-16T02:29:26.399Z,86.25
2023-02-16T02:32:14.600Z,87.15
2023-02-16T02:35:02.383Z,84.97
2023-02-16T02:38:01.702Z,94.43
2023-02-16T02:40:35.072Z,94.88
2023-02-16T02:43:15.082Z,84.72
2023-02-16T02:45:53.756Z,92.07
2023-02-16T02:48:21.204Z,100.35
2023-02-16T02:51:12.535Z,98.25
2023-02-16T02:53:43.443Z,96.13
2023-02-16T02:56:30.308Z,102.28
2023-02-16T02:59:19.414Z,97.30
2023-02-16T03:01:50.870Z,98.68
2023-02-16T03:04:22.795Z,94.55
2023-02-16T03:06:52.067Z,98.18
2023-02-16T03:09:20.843Z,96.30
2023-02-16T03:12:08.669Z,96.90
2023-02-16T03:14:38.239Z,107.65
2023-02-16T03:17:29.675Z,106.22
2023-02-16T03:20:16.298Z,104.22
2023-02-16T03:23:02.227Z,112.80
2023-02-16T03:25:53.253Z,106.22
2023-02-16T03:28:40.382Z,109.63
2023-02-16T03:31:09.695Z,108.03
2023-02-16T03:33:37.614Z,103.75
2023-02-16T03:36:06.117Z,104.28
2023-02-16T03:38:33.640Z,108.55
2023-02-16T03:41:01.293Z,110.30
2023-02-16T03:43:29.631Z,119.53
2023-02-16T03:45:57.119Z,102.35
2023-02-16T03:48:24.679Z,104.20
2023-02-16T03:50:52.064Z,109.15
2023-02-16T03:53:19.568Z,105.97
2023-02-16T03:55:47.929Z,116.55
2023-02-16T03:58:18.542Z,119.90
2023-02-16T04:00:46.290Z,130.05
2023-02-16T04:03:13.921Z,128.05
2023-02-16T04:05:41.782Z,134.82
2023-02-16T04:08:09.550Z,128.20
2023-02-16T04:10:37.387Z,132.98
2023-02-16T04:13:05.018Z,146.48
2023-02-16T04:15:32.974Z,130.27
2023-02-16T04:18:00.532Z,134.70
2023-02-16T04:20:29.954Z,132.70
2023-02-16T04:22:57.447Z,128.88
2023-02-16T04:25:25.048Z,131.57
2023-02-16T04:27:53.057Z,133.88
2023-02-16T04:30:24.818Z,132.95
2023-02-16T04:32:52.603Z,134.80
2023-02-16T04:35:20.282Z,135.07
2023-02-16T04:37:47.979Z,124.75
2023-02-16T04:40:17.653Z,129.98
2023-02-16T04:42:45.480Z,126.40
2023-02-16T04:45:13.344Z,117.43
2023-02-16T04:47:40.940Z,123.97
2023-02-16T04:50:08.834Z,125.80
2023-02-16T04:52:36.888Z,119.57
2023-02-16T04:55:05.691Z,111.78
2023-02-16T04:57:33.369Z,108.45
2023-02-16T05:00:00.817Z,128.70
2023-02-16T05:02:28.292Z,125.38
2023-02-16T05:04:55.675Z,116.38
2023-02-16T05:07:23.109Z,102.97
2023-02-16T05:09:50.664Z,101.68
2023-02-16T05:12:36.686Z,132.65
2023-02-16T05:15:04.702Z,130.40
2023-02-16T05:17:32.106Z,150.57
2023-02-16T05:20:01.695Z,155.02
2023-02-16T05:22:29.263Z,199.00
2023-02-16T05:24:56.788Z,388.55
2023-02-16T05:27:25.314Z,157.23
2023-02-16T05:29:52.872Z,120.20
2023-02-16T05:32:20.409Z,99.63
2023-02-16T05:34:47.932Z,108.80
2023-02-16T05:37:16.029Z,95.78
2023-02-16T05:39:43.461Z,102.40
2023-02-16T05:42:11.001Z,101.93
2023-02-16T05:44:38.625Z,106.40
2023-02-16T05:47:06.076Z,96.50
2023-02-16T05:49:33.599Z,90.88
2023-02-16T05:52:01.282Z,95.93
2023-02-16T05:54:28.781Z,110.93
2023-02-16T05:56:56.171Z,103.15
2023-02-16T05:59:24.029Z,108.50
2023-02-16T06:01:52.522Z,104.68
2023-02-16T06:04:20.974Z,125.30
2023-02-16T06:06:48.683Z,139.32
2023-02-16T06:09:16.145Z,160.70
2023-02-16T06:11:43.756Z,163.90
2023-02-16T06:14:12.468Z,156.65
2023-02-16T06:16:41.064Z,156.85
2023-02-16T06:19:09.365Z,147.10
2023-02-16T06:21:37.264Z,159.10
2023-02-16T06:24:04.914Z,162.45
2023-02-16T06:26:32.436Z,155.25
2023-02-16T06:28:59.961Z,156.65
2023-02-16T06:31:28.072Z,157.32
2023-02-16T06:33:56.932Z,156.70
2023-02-16T06:36:25.196Z,151.10
2023-02-16T06:38:52.923Z,150.18
2023-02-16T06:41:34.337Z,150.23
2023-02-16T06:44:02.957Z,151.98
2023-02-16T06:46:30.751Z,152.82
2023-02-16T06:48:58.238Z,162.88
2023-02-16T06:51:26.217Z,142.88
2023-02-16T06:53:53.678Z,140.43
2023-02-16T06:56:21.344Z,146.27
2023-02-16T06:58:48.916Z,141.23
2023-02-16T07:01:18.236Z,127.97
2023-02-16T07:03:45.708Z,127.13
2023-02-16T07:06:13.120Z,119.18
2023-02-16T07:08:40.565Z,120.65
2023-02-16T07:11:08.128Z,117.68
2023-02-16T07:13:36.643Z,127.47
2023-02-16T07:16:04.756Z,127.30
2023-02-16T07:18:32.293Z,138.25
2023-02-16T07:20:59.826Z,132.30
2023-02-16T07:23:27.288Z,112.28
2023-02-16T07:25:54.698Z,118.85
2023-02-16T07:28:22.122Z,107.95
2023-02-16T07:30:49.795Z,109.18
2023-02-16T07:33:17.345Z,83.93
2023-02-16T07:35:44.884Z,81.15
2023-02-16T07:38:12.423Z,67.70
2023-02-16T07:40:39.914Z,69.60
2023-02-16T07:43:07.425Z,74.32
2023-02-16T07:45:35.269Z,66.35
2023-02-16T07:48:02.800Z,65.43
2023-02-16T07:50:30.285Z,71.43
2023-02-16T07:52:57.694Z,59.40
2023-02-16T07:55:25.140Z,56.35
2023-02-16T07:57:56.916Z,60.20
2023-02-16T08:00:24.398Z,49.40
2023-02-16T08:02:51.979Z,50.58
2023-02-16T08:05:19.664Z,46.85
2023-02-16T08:07:47.841Z,50.45
2023-02-16T08:10:16.019Z,45.17
2023-02-16T08:12:43.436Z,42.33
2023-02-16T08:15:11.983Z,42.72
2023-02-16T08:17:39.571Z,41.53
2023-02-16T08:20:07.955Z,43.63
2023-02-16T08:22:36.035Z,40.60
2023-02-16T08:25:06.900Z,42.22
2023-02-16T08:27:34.620Z,37.92
2023-02-16T08:30:02.190Z,39.20
2023-02-16T08:32:30.289Z,41.22
2023-02-16T08:34:58.168Z,39.55
2023-02-16T08:37:25.727Z,38.33
2023-02-16T08:39:53.875Z,44.95
2023-02-16T08:42:21.372Z,39.55
2023-02-16T08:44:48.798Z,43.17
2023-02-16T08:47:18.420Z,40.60
2023-02-16T08:49:45.889Z,38.35
2023-02-16T08:52:13.404Z,40.55
2023-02-16T08:54:40.917Z,41.20
2023-02-16T08:57:08.335Z,41.50
2023-02-16T08:59:35.885Z,39.15
2023-02-16T09:02:03.776Z,39.55
2023-02-16T09:04:31.901Z,41.33
2023-02-16T09:06:59.805Z,38.05
2023-02-16T09:09:28.620Z,36.63
2023-02-16T09:11:57.723Z,40.78
2023-02-16T09:14:25.638Z,42.45
2023-02-16T09:16:53.154Z,37.67
2023-02-16T09:19:21.754Z,41.38
2023-02-16T09:21:50.985Z,39.20
2023-02-16T09:24:19.113Z,37.97
2023-02-16T09:26:46.664Z,41.75
2023-02-16T09:29:14.540Z,37.80
2023-02-16T09:31:42.567Z,43.55
2023-02-16T09:34:16.410Z,36.97
2023-02-16T09:36:44.259Z,36.92
2023-02-16T09:39:13.038Z,45.28
2023-02-16T09:41:58.942Z,38.13
2023-02-16T09:44:26.453Z,36.70
2023-02-16T09:46:56.169Z,37.28
2023-02-16T09:49:40.871Z,42.65
2023-02-16T09:52:08.282Z,41.57
2023-02-16T09:54:42.226Z,35.28
2023-02-16T09:57:19.505Z,38.63
2023-02-16T09:59:57.717Z,37.05
2023-02-16T10:02:39.500Z,37.75
2023-02-16T10:05:20.390Z,42.05
2023-02-16T10:08:00.193Z,40.22
2023-02-16T10:10:34.747Z,37.30
2023-02-16T10:13:05.803Z,36.63
2023-02-16T10:15:34.896Z,36.40
2023-02-16T10:18:07.457Z,37.97
2023-02-16T10:20:36.870Z,44.40
2023-02-16T10:23:12.913Z,41.95
2023-02-16T10:25:56.537Z,38.30
2023-02-16T10:28:38.569Z,41.28
2023-02-16T10:31:32.407Z,35.45
2023-02-16T10:34:18.549Z,39.67
2023-02-16T10:37:04.965Z,37.88
2023-02-16T10:39:38.684Z,36.03
2023-02-16T10:42:20.680Z,33.22
2023-02-16T10:45:00.958Z,34.33
2023-02-16T10:47:37.510Z,38.15
2023-02-16T10:50:09.021Z,35.95
2023-02-16T10:52:38.222Z,42.42
2023-02-16T10:55:07.063Z,35.42
2023-02-16T10:57:34.750Z,35.33
2023-02-16T11:00:03.758Z,34.83
2023-02-16T11:02:36.619Z,40.00
2023-02-16T11:05:06.446Z,35.38
2023-02-16T11:07:34.195Z,35.42
2023-02-16T11:10:20.120Z,36.25
2023-02-16T11:12:55.557Z,37.40
2023-02-16T11:15:24.548Z,35.85
2023-02-16T11:18:00.982Z,36.95
2023-02-16T11:20:29.880Z,39.72
2023-02-16T11:23:23.702Z,38.28
2023-02-16T11:26:06.472Z,34.80
2023-02-16T11:28:38.542Z,33.80
2023-02-16T11:31:14.905Z,35.80
2023-02-16T11:33:43.502Z,35.05
2023-02-16T11:36:40.110Z,35.97
2023-02-16T11:39:16.471Z,48.13
2023-02-16T11:41:50.179Z,37.33
2023-02-16T11:44:36.359Z,34.50
2023-02-16T11:47:06.054Z,35.20
2023-02-16T11:49:35.755Z,35.47
2023-02-16T11:52:19.045Z,37.60
2023-02-16T11:54:50.701Z,37.05
2023-02-16T11:57:24.473Z,33.72
2023-02-16T11:59:52.194Z,38.45
2023-02-16T12:02:31.804Z,36.92
2023-02-16T12:05:18.011Z,36.40
2023-02-16T12:07:57.621Z,36.13
2023-02-16T12:10:26.032Z,34.30
2023-02-16T12:12:56.310Z,33.55
2023-02-16T12:15:40.157Z,34.67
2023-02-16T12:18:34.276Z,31.23
2023-02-16T12:21:17.292Z,32.75
2023-02-16T12:24:13.855Z,29.83
2023-02-16T12:26:41.592Z,30.42
2023-02-16T12:29:27.425Z,33.90
2023-02-16T12:32:04.230Z,29.45
2023-02-16T12:34:31.746Z,39.83
2023-02-16T12:37:10.242Z,32.83
2023-02-16T12:40:13.289Z,31.92
2023-02-16T12:42:54.649Z,31.05
2023-02-16T12:45:27.014Z,32.60
2023-02-16T12:48:04.186Z,31.08
2023-02-16T12:50:33.173Z,32.47
2023-02-16T12:53:10.597Z,32.67
2023-02-16T12:55:40.564Z,35.42
2023-02-16T12:58:21.013Z,34.45
2023-02-16T13:01:01.051Z,33.33
2023-02-16T13:03:41.015Z,34.38
2023-02-16T13:06:25.145Z,35.20
2023-02-16T13:08:57.200Z,34.10
2023-02-16T13:11:29.140Z,36.65
2023-02-16T13:14:00.286Z,35.08
2023-02-16T13:16:45.494Z,35.67
2023-02-16T13:19:17.176Z,39.88
2023-02-16T13:24:37.905Z,34.85
2023-02-16T13:27:38.173Z,35.80
2023-02-16T13:30:24.668Z,35.03
2023-02-16T13:32:58.250Z,31.08
2023-02-16T13:35:37.216Z,36.35
2023-02-16T13:38:07.917Z,35.90
2023-02-16T13:40:54.290Z,37.65
2023-02-16T13:43:21.825Z,34.38
2023-02-16T13:45:53.809Z,31.08
2023-02-16T13:48:27.236Z,32.05
2023-02-16T13:51:03.876Z,31.38
2023-02-16T13:53:37.815Z,32.53
2023-02-16T13:56:14.264Z,31.20
2023-02-16T13:58:41.780Z,32.80
2023-02-16T14:01:27.961Z,31.75
2023-02-16T14:03:55.385Z,33.90
2023-02-16T14:06:34.796Z,31.20
2023-02-16T14:09:11.301Z,32.45
2023-02-16T14:11:54.325Z,33.95
2023-02-16T14:14:40.525Z,27.48
2023-02-16T14:17:21.754Z,31.70
2023-02-16T14:20:11.832Z,34.15
2023-02-16T14:22:39.254Z,31.08
2023-02-16T14:25:07.789Z,29.60
2023-02-16T14:27:43.077Z,29.25
2023-02-16T14:30:21.945Z,30.60
2023-02-16T14:33:09.577Z,33.72
2023-02-16T14:35:38.405Z,30.15
2023-02-16T14:38:17.313Z,33.13
2023-02-16T14:40:55.516Z,31.60
2023-02-16T14:43:33.108Z,29.27
2023-02-16T14:46:19.403Z,34.13
2023-02-16T14:48:48.623Z,33.80
2023-02-16T14:51:34.739Z,44.17
2023-02-16T14:54:19.400Z,34.20
2023-02-16T14:56:59.514Z,29.08
2023-02-16T14:59:39.280Z,32.70
2023-02-16T15:02:25.137Z,31.80
2023-02-16T15:04:52.850Z,28.10
2023-02-16T15:07:21.569Z,32.03
2023-02-16T15:09:57.432Z,35.50
2023-02-16T15:12:39.487Z,33.38
2023-02-16T15:15:10.322Z,34.58
2023-02-16T15:17:56.152Z,31.95
2023-02-16T15:20:32.202Z,30.48
2023-02-16T15:23:04.409Z,36.53
2023-02-16T15:25:33.936Z,33.45
2023-02-16T15:28:04.388Z,32.47
2023-02-16T15:30:33.656Z,32.40
2023-02-16T15:33:02.252Z,33.70
2023-02-16T15:35:32.347Z,45.67
2023-02-16T15:38:01.197Z,49.13
2023-02-16T15:40:31.747Z,53.08
2023-02-16T15:43:06.823Z,42.95
2023-02-16T15:45:37.842Z,45.42
2023-02-16T15:48:22.687Z,44.20
2023-02-16T15:50:51.832Z,38.65
2023-02-16T15:53:24.350Z,42.85
2023-02-16T15:55:51.917Z,45.65
2023-02-16T15:58:19.432Z,45.00
2023-02-16T16:00:47.837Z,39.70
2023-02-16T16:03:22.491Z,40.33
2023-02-16T16:05:59.445Z,38.40
2023-02-16T16:08:28.046Z,34.92
2023-02-16T16:10:56.167Z,37.03
2023-02-16T16:13:28.170Z,39.75
2023-02-16T16:16:01.576Z,43.58
2023-02-16T16:18:37.398Z,46.80
2023-02-16T16:21:05.550Z,45.15
2023-02-16T16:23:33.109Z,43.30
2023-02-16T16:26:00.756Z,45.55
2023-02-16T16:28:28.093Z,47.97
2023-02-16T16:31:12.681Z,50.00
2023-02-16T16:33:53.172Z,48.78
2023-02-16T16:36:21.083Z,48.42
2023-02-16T16:38:48.749Z,49.53
2023-02-16T16:41:27.756Z,48.75
2023-02-16T16:43:56.987Z,47.40
2023-02-16T16:46:25.869Z,53.28
2023-02-16T16:48:56.569Z,56.08
2023-02-16T16:51:27.794Z,55.40
2023-02-16T16:53:57.659Z,55.38
2023-02-16T16:56:25.198Z,59.10
2023-02-16T16:58:53.840Z,70.28
2023-02-16T17:01:21.897Z,234.40
2023-02-16T17:03:49.714Z,342.15
2023-02-16T17:06:18.380Z,380.83
2023-02-16T17:08:46.333Z,431.30
2023-02-16T17:11:23.881Z,434.30
2023-02-16T17:13:51.909Z,440.23
2023-02-16T17:16:39.826Z,346.73
2023-02-16T17:19:07.426Z,327.80
2023-02-16T17:21:34.835Z,259.50
2023-02-16T17:24:02.324Z,182.00
2023-02-16T17:26:29.978Z,243.93
2023-02-16T17:28:57.474Z,183.63
2023-02-16T17:31:24.995Z,199.68
2023-02-16T17:33:52.575Z,251.35
2023-02-16T17:36:20.909Z,227.13
2023-02-16T17:38:49.214Z,166.35
2023-02-16T17:41:21.825Z,160.23
2023-02-16T17:43:49.399Z,211.30
2023-02-16T17:46:17.456Z,202.00
2023-02-16T17:48:45.527Z,175.20
2023-02-16T17:51:15.529Z,166.45
2023-02-16T17:53:43.081Z,274.33
2023-02-16T17:56:11.911Z,225.90
2023-02-16T17:58:39.795Z,184.07
2023-02-16T18:01:07.783Z,151.50
2023-02-16T18:03:35.238Z,142.45
2023-02-16T18:06:02.934Z,155.05
2023-02-16T18:08:30.678Z,151.05
2023-02-16T18:11:02.139Z,165.90
2023-02-16T18:13:30.624Z,169.40
2023-02-16T18:15:58.980Z,164.20
2023-02-16T18:18:26.530Z,199.52
2023-02-16T18:20:54.255Z,216.45
2023-02-16T18:23:21.771Z,200.80
2023-02-16T18:25:49.187Z,190.25
2023-02-16T18:28:18.482Z,178.13
2023-02-16T18:30:47.817Z,190.32
2023-02-16T18:33:15.483Z,186.02
2023-02-16T18:35:42.960Z,155.20
2023-02-16T18:38:10.755Z,144.85
2023-02-16T18:40:38.221Z,117.63
2023-02-16T18:43:05.715Z,125.22
2023-02-16T18:45:33.179Z,98.38
2023-02-16T18:48:00.818Z,80.13
2023-02-16T18:50:28.409Z,84.35
2023-02-16T18:52:55.943Z,77.97
2023-02-16T18:55:23.341Z,57.80
2023-02-16T18:57:50.930Z,67.65
2023-02-16T19:00:23.003Z,85.38
2023-02-16T19:02:53.762Z,96.40
2023-02-16T19:05:21.371Z,88.72
2023-02-16T19:07:48.935Z,68.13
2023-02-16T19:10:16.800Z,62.97
2023-02-16T19:12:44.260Z,61.63
2023-02-16T19:15:11.751Z,68.78
2023-02-16T19:17:39.274Z,67.25
2023-02-16T19:20:09.761Z,72.65
2023-02-16T19:22:37.414Z,78.30
2023-02-16T19:25:05.851Z,89.97
2023-02-16T19:27:33.765Z,89.45
2023-02-16T19:30:01.312Z,121.30
2023-02-16T19:32:28.987Z,151.27
2023-02-16T19:34:56.421Z,135.65
2023-02-16T19:37:23.917Z,115.60
2023-02-16T19:39:51.450Z,105.47
2023-02-16T19:42:18.960Z,119.18
2023-02-16T19:44:46.554Z,130.10
2023-02-16T19:47:14.023Z,139.63
2023-02-16T19:49:41.506Z,133.70
2023-02-16T19:52:08.988Z,108.10
2023-02-16T19:54:37.161Z,98.30
2023-02-16T19:57:05.256Z,89.85
2023-02-16T19:59:33.295Z,89.25
2023-02-16T20:02:00.882Z,77.30
2023-02-16T20:04:28.569Z,72.32
2023-02-16T20:06:56.541Z,82.00
2023-02-16T20:09:24.176Z,76.88
2023-02-16T20:11:52.297Z,72.22
2023-02-16T20:14:19.799Z,75.93
2023-02-16T20:16:49.513Z,84.65
2023-02-16T20:19:16.972Z,80.50
2023-02-16T20:21:46.280Z,96.63
2023-02-16T20:24:14.118Z,106.68
2023-02-16T20:26:43.177Z,112.25
2023-02-16T20:29:11.653Z,128.00
2023-02-16T20:31:41.573Z,140.18
2023-02-16T20:34:09.747Z,143.07
2023-02-16T20:36:37.818Z,140.20
2023-02-16T20:39:09.256Z,142.57
2023-02-16T20:41:36.785Z,140.82
2023-02-16T20:44:04.775Z,139.82
2023-02-16T20:46:32.361Z,142.30
2023-02-16T20:48:59.903Z,149.10
2023-02-16T20:51:27.513Z,153.85
2023-02-16T20:53:54.956Z,155.65
2023-02-16T20:56:23.723Z,202.90
2023-02-16T20:58:52.293Z,191.07
2023-02-16T21:01:31.273Z,157.40
2023-02-16T21:03:59.524Z,137.90
2023-02-16T21:06:28.534Z,147.40
2023-02-16T21:08:56.119Z,146.15
2023-02-16T21:11:24.041Z,153.98
2023-02-16T21:13:51.809Z,170.50
2023-02-16T21:16:19.921Z,149.68
2023-02-16T21:18:47.515Z,176.07
2023-02-16T21:21:17.885Z,164.80
2023-02-16T21:23:46.724Z,123.05
2023-02-16T21:26:14.621Z,135.15
2023-02-16T21:28:42.120Z,123.28
2023-02-16T21:31:10.953Z,124.47
2023-02-16T21:33:38.843Z,120.38
2023-02-16T21:36:07.392Z,118.78
2023-02-16T21:38:35.798Z,125.53
2023-02-16T21:41:22.999Z,117.50
2023-02-16T21:43:50.880Z,121.10
2023-02-16T21:46:18.326Z,116.32
2023-02-16T21:48:46.547Z,126.43
2023-02-16T21:51:14.851Z,123.15
2023-02-16T21:53:42.349Z,121.03
2023-02-16T21:56:19.893Z,112.70
2023-02-16T21:58:47.820Z,122.63
2023-02-16T22:01:15.368Z,155.38
2023-02-16T22:03:42.968Z,147.10
2023-02-16T22:06:11.016Z,143.50
2023-02-16T22:08:38.547Z,145.55
2023-02-16T22:11:10.298Z,142.07
2023-02-16T22:13:38.131Z,125.65
2023-02-16T22:16:12.695Z,122.90
2023-02-16T22:18:41.086Z,115.22
2023-02-16T22:21:08.599Z,122.75
2023-02-16T22:23:36.484Z,111.72
2023-02-16T22:26:05.026Z,113.45
2023-02-16T22:28:33.263Z,105.72
2023-02-16T22:31:06.193Z,107.15
2023-02-16T22:33:34.046Z,102.15
2023-02-16T22:36:06.205Z,95.00
2023-02-16T22:38:34.311Z,108.03
2023-02-16T22:41:04.807Z,98.15
2023-02-16T22:43:32.381Z,92.75
2023-02-16T22:45:59.836Z,103.05
2023-02-16T22:48:27.332Z,104.15
2023-02-16T22:50:58.385Z,98.10
2023-02-16T22:53:27.023Z,96.68
2023-02-16T22:55:54.674Z,99.28
2023-02-16T22:58:22.459Z,101.20
2023-02-16T23:00:50.826Z,97.80
2023-02-16T23:03:18.272Z,102.75
2023-02-16T23:05:45.972Z,105.20
2023-02-16T23:08:13.413Z,107.18
2023-02-16T23:10:41.186Z,102.47
2023-02-16T23:13:09.831Z,103.53
2023-02-16T23:15:37.317Z,104.53
2023-02-16T23:18:04.815Z,105.85
2023-02-16T23:20:32.205Z,105.80
2023-02-16T23:22:59.627Z,97.75
2023-02-16T23:25:33.003Z,92.18
2023-02-16T23:28:01.270Z,95.70
2023-02-16T23:30:29.091Z,95.10
2023-02-16T23:32:56.864Z,95.38
2023-02-16T23:35:24.379Z,101.85
2023-02-16T23:37:51.942Z,96.55
2023-02-16T23:40:19.437Z,93.95
2023-02-16T23:42:46.854Z,97.65
2023-02-16T23:45:14.313Z,100.43
2023-02-16T23:47:41.746Z,95.60
2023-02-16T23:50:09.360Z,97.18
2023-02-16T23:52:36.761Z,93.00
2023-02-16T23:55:04.218Z,90.82
2023-02-16T23:57:31.623Z,90.50
2023-02-16T23:59:59.084Z,89.32
